<?xml version="1.0" encoding="UTF-8" standalone="no" ?>
<gpx xmlns="http://www.topografix.com/GPX/1/1" xmlns:xsi="http://www.w3.org/2001/XMLSchema-instance" xsi:schemaLocation="http://www.topografix.com/GPX/1/1 http://www.topografix.com/GPX/1/1/gpx.xsd" version="1.1" creator="VisuGPX - https://www.visugpx.com">
  <metadata>
    <name>Samu's Cup 2019</name>
    <desc><![CDATA[régate des SAMU de France
port de Saint Mandrier sur mer
cagnard 16 Garches 2
embarcation Dufour 410
équipage Bruno Fred Cécile Coralyne Sophie Jean Marc Christian
belle météo sur la semaine 
1 BMS 28/05 pas de sortie
14ème/26
détail samuscup.fr]]></desc>
  </metadata>
  <trk>
    <name><![CDATA[Tracé actuel: 25 MAI 2019 18:32]]></name>
    <trkseg>
      <trkpt lat="43.08876" lon="5.92071">
        <ele>0.62</ele>
        <time>2019-05-25T16:32:35Z</time>
      </trkpt>
      <trkpt lat="43.08888" lon="5.92062">
        <ele>-2.27</ele>
        <time>2019-05-25T16:32:45Z</time>
      </trkpt>
      <trkpt lat="43.08902" lon="5.92059">
        <ele>0.14</ele>
        <time>2019-05-25T16:32:57Z</time>
      </trkpt>
      <trkpt lat="43.0891" lon="5.92057">
        <ele>-0.34</ele>
        <time>2019-05-25T16:33:03Z</time>
      </trkpt>
      <trkpt lat="43.08931" lon="5.9205">
        <ele>-0.82</ele>
        <time>2019-05-25T16:33:18Z</time>
      </trkpt>
      <trkpt lat="43.08949" lon="5.92037">
        <ele>0.14</ele>
        <time>2019-05-25T16:33:32Z</time>
      </trkpt>
      <trkpt lat="43.0897" lon="5.92016">
        <ele>-2.75</ele>
        <time>2019-05-25T16:33:47Z</time>
      </trkpt>
      <trkpt lat="43.08985" lon="5.92002">
        <ele>-4.67</ele>
        <time>2019-05-25T16:33:56Z</time>
      </trkpt>
      <trkpt lat="43.08999" lon="5.91984">
        <ele>-7.07</ele>
        <time>2019-05-25T16:34:08Z</time>
      </trkpt>
      <trkpt lat="43.09019" lon="5.91962">
        <ele>-6.11</ele>
        <time>2019-05-25T16:34:21Z</time>
      </trkpt>
      <trkpt lat="43.09044" lon="5.91938">
        <ele>-5.15</ele>
        <time>2019-05-25T16:34:35Z</time>
      </trkpt>
      <trkpt lat="43.09077" lon="5.91906">
        <ele>-2.27</ele>
        <time>2019-05-25T16:34:53Z</time>
      </trkpt>
      <trkpt lat="43.0911" lon="5.91875">
        <ele>-2.75</ele>
        <time>2019-05-25T16:35:11Z</time>
      </trkpt>
      <trkpt lat="43.09138" lon="5.91853">
        <ele>-2.75</ele>
        <time>2019-05-25T16:35:22Z</time>
      </trkpt>
      <trkpt lat="43.09159" lon="5.91837">
        <ele>-3.71</ele>
        <time>2019-05-25T16:35:33Z</time>
      </trkpt>
      <trkpt lat="43.09192" lon="5.91808">
        <ele>-1.3</ele>
        <time>2019-05-25T16:35:52Z</time>
      </trkpt>
      <trkpt lat="43.09198" lon="5.91797">
        <ele>-2.75</ele>
        <time>2019-05-25T16:35:57Z</time>
      </trkpt>
      <trkpt lat="43.09202" lon="5.91793">
        <ele>-3.23</ele>
        <time>2019-05-25T16:36:01Z</time>
      </trkpt>
      <trkpt lat="43.09217" lon="5.91778">
        <ele>-4.67</ele>
        <time>2019-05-25T16:36:11Z</time>
      </trkpt>
      <trkpt lat="43.09238" lon="5.9176">
        <ele>-2.75</ele>
        <time>2019-05-25T16:36:25Z</time>
      </trkpt>
      <trkpt lat="43.0926" lon="5.91749">
        <ele>-1.79</ele>
        <time>2019-05-25T16:36:38Z</time>
      </trkpt>
      <trkpt lat="43.09275" lon="5.91769">
        <ele>-3.71</ele>
        <time>2019-05-25T16:36:52Z</time>
      </trkpt>
      <trkpt lat="43.09287" lon="5.91799">
        <ele>-2.75</ele>
        <time>2019-05-25T16:37:09Z</time>
      </trkpt>
      <trkpt lat="43.09294" lon="5.91822">
        <ele>-4.19</ele>
        <time>2019-05-25T16:37:23Z</time>
      </trkpt>
      <trkpt lat="43.09305" lon="5.91865">
        <ele>-2.27</ele>
        <time>2019-05-25T16:37:50Z</time>
      </trkpt>
      <trkpt lat="43.09309" lon="5.91893">
        <ele>-3.71</ele>
        <time>2019-05-25T16:38:07Z</time>
      </trkpt>
      <trkpt lat="43.09307" lon="5.91926">
        <ele>-2.27</ele>
        <time>2019-05-25T16:38:26Z</time>
      </trkpt>
      <trkpt lat="43.09303" lon="5.91955">
        <ele>-3.23</ele>
        <time>2019-05-25T16:38:43Z</time>
      </trkpt>
      <trkpt lat="43.09292" lon="5.91986">
        <ele>-4.67</ele>
        <time>2019-05-25T16:39:03Z</time>
      </trkpt>
      <trkpt lat="43.09276" lon="5.92014">
        <ele>-2.75</ele>
        <time>2019-05-25T16:39:26Z</time>
      </trkpt>
      <trkpt lat="43.09262" lon="5.92035">
        <ele>-3.71</ele>
        <time>2019-05-25T16:39:45Z</time>
      </trkpt>
      <trkpt lat="43.09243" lon="5.9206">
        <ele>-3.23</ele>
        <time>2019-05-25T16:40:10Z</time>
      </trkpt>
      <trkpt lat="43.09237" lon="5.92067">
        <ele>-3.71</ele>
        <time>2019-05-25T16:40:17Z</time>
      </trkpt>
      <trkpt lat="43.09215" lon="5.92084">
        <ele>-4.19</ele>
        <time>2019-05-25T16:40:40Z</time>
      </trkpt>
      <trkpt lat="43.09188" lon="5.92097">
        <ele>-3.71</ele>
        <time>2019-05-25T16:41:06Z</time>
      </trkpt>
      <trkpt lat="43.09157" lon="5.92102">
        <ele>-2.75</ele>
        <time>2019-05-25T16:41:32Z</time>
      </trkpt>
      <trkpt lat="43.09129" lon="5.92099">
        <ele>-3.71</ele>
        <time>2019-05-25T16:41:55Z</time>
      </trkpt>
      <trkpt lat="43.09104" lon="5.92106">
        <ele>-2.27</ele>
        <time>2019-05-25T16:42:16Z</time>
      </trkpt>
      <trkpt lat="43.09076" lon="5.92114">
        <ele>-2.75</ele>
        <time>2019-05-25T16:42:40Z</time>
      </trkpt>
      <trkpt lat="43.09053" lon="5.92123">
        <ele>-3.23</ele>
        <time>2019-05-25T16:43:03Z</time>
      </trkpt>
      <trkpt lat="43.09039" lon="5.92119">
        <ele>-3.23</ele>
        <time>2019-05-25T16:43:20Z</time>
      </trkpt>
      <trkpt lat="43.09043" lon="5.92103">
        <ele>-3.71</ele>
        <time>2019-05-25T16:43:36Z</time>
      </trkpt>
      <trkpt lat="43.09049" lon="5.9208">
        <ele>-1.79</ele>
        <time>2019-05-25T16:43:56Z</time>
      </trkpt>
      <trkpt lat="43.09058" lon="5.92051">
        <ele>-1.79</ele>
        <time>2019-05-25T16:44:22Z</time>
      </trkpt>
      <trkpt lat="43.09062" lon="5.92037">
        <ele>-2.75</ele>
        <time>2019-05-25T16:44:35Z</time>
      </trkpt>
      <trkpt lat="43.09072" lon="5.92013">
        <ele>-2.75</ele>
        <time>2019-05-25T16:44:57Z</time>
      </trkpt>
      <trkpt lat="43.09075" lon="5.92">
        <ele>-2.75</ele>
        <time>2019-05-25T16:45:08Z</time>
      </trkpt>
      <trkpt lat="43.0908" lon="5.91956">
        <ele>-3.23</ele>
        <time>2019-05-25T16:45:34Z</time>
      </trkpt>
      <trkpt lat="43.09086" lon="5.91909">
        <ele>-2.75</ele>
        <time>2019-05-25T16:45:54Z</time>
      </trkpt>
      <trkpt lat="43.09092" lon="5.91862">
        <ele>-2.27</ele>
        <time>2019-05-25T16:46:12Z</time>
      </trkpt>
      <trkpt lat="43.09093" lon="5.91828">
        <ele>-2.75</ele>
        <time>2019-05-25T16:46:25Z</time>
      </trkpt>
      <trkpt lat="43.09094" lon="5.9182">
        <ele>-2.75</ele>
        <time>2019-05-25T16:46:28Z</time>
      </trkpt>
      <trkpt lat="43.09098" lon="5.9178">
        <ele>-3.23</ele>
        <time>2019-05-25T16:46:43Z</time>
      </trkpt>
      <trkpt lat="43.09102" lon="5.91738">
        <ele>-2.75</ele>
        <time>2019-05-25T16:46:59Z</time>
      </trkpt>
      <trkpt lat="43.09106" lon="5.917">
        <ele>-2.27</ele>
        <time>2019-05-25T16:47:13Z</time>
      </trkpt>
      <trkpt lat="43.09111" lon="5.91661">
        <ele>-2.27</ele>
        <time>2019-05-25T16:47:28Z</time>
      </trkpt>
      <trkpt lat="43.09116" lon="5.91609">
        <ele>-2.27</ele>
        <time>2019-05-25T16:47:48Z</time>
      </trkpt>
      <trkpt lat="43.09112" lon="5.91582">
        <ele>-3.23</ele>
        <time>2019-05-25T16:48:02Z</time>
      </trkpt>
      <trkpt lat="43.09106" lon="5.91586">
        <ele>-3.71</ele>
        <time>2019-05-25T16:48:07Z</time>
      </trkpt>
      <trkpt lat="43.09102" lon="5.91591">
        <ele>-4.19</ele>
        <time>2019-05-25T16:48:11Z</time>
      </trkpt>
      <trkpt lat="43.09095" lon="5.91598">
        <ele>-4.19</ele>
        <time>2019-05-25T16:48:18Z</time>
      </trkpt>
      <trkpt lat="43.0909" lon="5.91602">
        <ele>-3.71</ele>
        <time>2019-05-25T16:48:22Z</time>
      </trkpt>
      <trkpt lat="43.09079" lon="5.91617">
        <ele>-3.71</ele>
        <time>2019-05-25T16:48:34Z</time>
      </trkpt>
      <trkpt lat="43.09069" lon="5.91628">
        <ele>-4.19</ele>
        <time>2019-05-25T16:48:43Z</time>
      </trkpt>
      <trkpt lat="43.0905" lon="5.91651">
        <ele>-5.15</ele>
        <time>2019-05-25T16:48:59Z</time>
      </trkpt>
      <trkpt lat="43.09029" lon="5.91671">
        <ele>-4.19</ele>
        <time>2019-05-25T16:49:15Z</time>
      </trkpt>
      <trkpt lat="43.09012" lon="5.91687">
        <ele>-3.71</ele>
        <time>2019-05-25T16:49:25Z</time>
      </trkpt>
      <trkpt lat="43.08989" lon="5.91692">
        <ele>-2.75</ele>
        <time>2019-05-25T16:49:42Z</time>
      </trkpt>
      <trkpt lat="43.0898" lon="5.91694">
        <ele>-1.79</ele>
        <time>2019-05-25T16:49:50Z</time>
      </trkpt>
      <trkpt lat="43.08969" lon="5.91696">
        <ele>-1.3</ele>
        <time>2019-05-25T16:50:01Z</time>
      </trkpt>
      <trkpt lat="43.08965" lon="5.91698">
        <ele>-1.79</ele>
        <time>2019-05-25T16:50:05Z</time>
      </trkpt>
      <trkpt lat="43.08948" lon="5.917">
        <ele>-2.27</ele>
        <time>2019-05-25T16:50:23Z</time>
      </trkpt>
      <trkpt lat="43.08943" lon="5.917">
        <ele>-3.23</ele>
        <time>2019-05-25T16:50:31Z</time>
      </trkpt>
      <trkpt lat="43.0894" lon="5.91701">
        <ele>-1.79</ele>
        <time>2019-05-25T16:50:41Z</time>
      </trkpt>
      <trkpt lat="43.08933" lon="5.91696">
        <ele>-2.27</ele>
        <time>2019-05-25T16:50:58Z</time>
      </trkpt>
      <trkpt lat="43.08927" lon="5.91692">
        <ele>-2.27</ele>
        <time>2019-05-25T16:51:20Z</time>
      </trkpt>
      <trkpt lat="43.08922" lon="5.91691">
        <ele>-0.34</ele>
        <time>2019-05-25T16:51:37Z</time>
      </trkpt>
      <trkpt lat="43.08917" lon="5.91691">
        <ele>-0.82</ele>
        <time>2019-05-25T16:51:55Z</time>
      </trkpt>
      <trkpt lat="43.08915" lon="5.9169">
        <ele>-0.82</ele>
        <time>2019-05-25T16:52:12Z</time>
      </trkpt>
      <trkpt lat="43.08905" lon="5.91686">
        <ele>-0.82</ele>
        <time>2019-05-25T16:52:31Z</time>
      </trkpt>
      <trkpt lat="43.08894" lon="5.91693">
        <ele>-0.82</ele>
        <time>2019-05-25T16:52:49Z</time>
      </trkpt>
      <trkpt lat="43.08891" lon="5.91702">
        <ele>-1.79</ele>
        <time>2019-05-25T16:52:58Z</time>
      </trkpt>
      <trkpt lat="43.08888" lon="5.91713">
        <ele>-1.3</ele>
        <time>2019-05-25T16:53:12Z</time>
      </trkpt>
      <trkpt lat="43.08875" lon="5.91741">
        <ele>-0.82</ele>
        <time>2019-05-25T16:53:29Z</time>
      </trkpt>
      <trkpt lat="43.08863" lon="5.91783">
        <ele>-1.3</ele>
        <time>2019-05-25T16:53:47Z</time>
      </trkpt>
      <trkpt lat="43.08849" lon="5.91821">
        <ele>-1.79</ele>
        <time>2019-05-25T16:54:02Z</time>
      </trkpt>
      <trkpt lat="43.08848" lon="5.91826">
        <ele>-2.27</ele>
        <time>2019-05-25T16:54:04Z</time>
      </trkpt>
      <trkpt lat="43.08844" lon="5.91839">
        <ele>-1.3</ele>
        <time>2019-05-25T16:54:09Z</time>
      </trkpt>
      <trkpt lat="43.08827" lon="5.91884">
        <ele>-0.82</ele>
        <time>2019-05-25T16:54:27Z</time>
      </trkpt>
      <trkpt lat="43.08809" lon="5.91917">
        <ele>-1.3</ele>
        <time>2019-05-25T16:54:42Z</time>
      </trkpt>
      <trkpt lat="43.08793" lon="5.91948">
        <ele>-2.27</ele>
        <time>2019-05-25T16:54:56Z</time>
      </trkpt>
      <trkpt lat="43.08774" lon="5.91981">
        <ele>-2.27</ele>
        <time>2019-05-25T16:55:12Z</time>
      </trkpt>
      <trkpt lat="43.08756" lon="5.9201">
        <ele>-0.34</ele>
        <time>2019-05-25T16:55:27Z</time>
      </trkpt>
      <trkpt lat="43.08736" lon="5.92045">
        <ele>0.14</ele>
        <time>2019-05-25T16:55:45Z</time>
      </trkpt>
      <trkpt lat="43.08718" lon="5.92078">
        <ele>-3.23</ele>
        <time>2019-05-25T16:56:01Z</time>
      </trkpt>
      <trkpt lat="43.08689" lon="5.92125">
        <ele>-5.63</ele>
        <time>2019-05-25T16:56:27Z</time>
      </trkpt>
      <trkpt lat="43.08662" lon="5.92168">
        <ele>-2.27</ele>
        <time>2019-05-25T16:56:51Z</time>
      </trkpt>
      <trkpt lat="43.08646" lon="5.92189">
        <ele>-3.23</ele>
        <time>2019-05-25T16:57:04Z</time>
      </trkpt>
      <trkpt lat="43.08629" lon="5.92206">
        <ele>-4.19</ele>
        <time>2019-05-25T16:57:16Z</time>
      </trkpt>
      <trkpt lat="43.08607" lon="5.92235">
        <ele>-2.75</ele>
        <time>2019-05-25T16:57:33Z</time>
      </trkpt>
      <trkpt lat="43.08585" lon="5.92255">
        <ele>-3.23</ele>
        <time>2019-05-25T16:57:48Z</time>
      </trkpt>
      <trkpt lat="43.08563" lon="5.92275">
        <ele>-2.75</ele>
        <time>2019-05-25T16:58:03Z</time>
      </trkpt>
      <trkpt lat="43.0854" lon="5.9229">
        <ele>-2.75</ele>
        <time>2019-05-25T16:58:18Z</time>
      </trkpt>
      <trkpt lat="43.08524" lon="5.923">
        <ele>-3.23</ele>
        <time>2019-05-25T16:58:29Z</time>
      </trkpt>
      <trkpt lat="43.08502" lon="5.92314">
        <ele>-3.23</ele>
        <time>2019-05-25T16:58:43Z</time>
      </trkpt>
      <trkpt lat="43.08481" lon="5.92332">
        <ele>-1.79</ele>
        <time>2019-05-25T16:58:58Z</time>
      </trkpt>
      <trkpt lat="43.08459" lon="5.92348">
        <ele>-0.82</ele>
        <time>2019-05-25T16:59:13Z</time>
      </trkpt>
      <trkpt lat="43.08442" lon="5.9236">
        <ele>-1.3</ele>
        <time>2019-05-25T16:59:24Z</time>
      </trkpt>
      <trkpt lat="43.08432" lon="5.92367">
        <ele>-1.3</ele>
        <time>2019-05-25T16:59:31Z</time>
      </trkpt>
      <trkpt lat="43.08419" lon="5.92376">
        <ele>-1.3</ele>
        <time>2019-05-25T16:59:40Z</time>
      </trkpt>
      <trkpt lat="43.08391" lon="5.92394">
        <ele>-1.79</ele>
        <time>2019-05-25T16:59:57Z</time>
      </trkpt>
      <trkpt lat="43.08368" lon="5.92404">
        <ele>-2.27</ele>
        <time>2019-05-25T17:00:12Z</time>
      </trkpt>
      <trkpt lat="43.08341" lon="5.92411">
        <ele>-0.82</ele>
        <time>2019-05-25T17:00:30Z</time>
      </trkpt>
      <trkpt lat="43.08335" lon="5.92415">
        <ele>0.62</ele>
        <time>2019-05-25T17:00:47Z</time>
      </trkpt>
      <trkpt lat="43.08335" lon="5.92415">
        <ele>0.14</ele>
        <time>2019-05-25T17:01:08Z</time>
      </trkpt>
      <trkpt lat="43.0831" lon="5.92423">
        <ele>0.14</ele>
        <time>2019-05-25T17:01:26Z</time>
      </trkpt>
      <trkpt lat="43.08265" lon="5.92438">
        <ele>0.14</ele>
        <time>2019-05-25T17:01:51Z</time>
      </trkpt>
      <trkpt lat="43.08221" lon="5.92449">
        <ele>1.58</ele>
        <time>2019-05-25T17:02:17Z</time>
      </trkpt>
      <trkpt lat="43.08181" lon="5.92462">
        <ele>0.62</ele>
        <time>2019-05-25T17:02:44Z</time>
      </trkpt>
      <trkpt lat="43.08151" lon="5.92472">
        <ele>0.14</ele>
        <time>2019-05-25T17:03:05Z</time>
      </trkpt>
      <trkpt lat="43.08105" lon="5.92484">
        <ele>1.1</ele>
        <time>2019-05-25T17:03:37Z</time>
      </trkpt>
      <trkpt lat="43.08059" lon="5.92495">
        <ele>1.1</ele>
        <time>2019-05-25T17:04:13Z</time>
      </trkpt>
      <trkpt lat="43.08039" lon="5.92486">
        <ele>0.62</ele>
        <time>2019-05-25T17:04:34Z</time>
      </trkpt>
      <trkpt lat="43.08037" lon="5.92477">
        <ele>0.62</ele>
        <time>2019-05-25T17:04:40Z</time>
      </trkpt>
      <trkpt lat="43.08027" lon="5.92453">
        <ele>3.02</ele>
        <time>2019-05-25T17:05:01Z</time>
      </trkpt>
      <trkpt lat="43.08024" lon="5.92445">
        <ele>2.06</ele>
        <time>2019-05-25T17:05:07Z</time>
      </trkpt>
      <trkpt lat="43.08021" lon="5.92441">
        <ele>1.58</ele>
        <time>2019-05-25T17:05:11Z</time>
      </trkpt>
      <trkpt lat="43.08018" lon="5.92431">
        <ele>0.62</ele>
        <time>2019-05-25T17:05:26Z</time>
      </trkpt>
      <trkpt lat="43.08016" lon="5.92429">
        <ele>1.1</ele>
        <time>2019-05-25T17:05:46Z</time>
      </trkpt>
      <trkpt lat="43.08018" lon="5.92423">
        <ele>1.58</ele>
        <time>2019-05-25T17:06:00Z</time>
      </trkpt>
      <trkpt lat="43.0802" lon="5.92416">
        <ele>1.1</ele>
        <time>2019-05-25T17:06:12Z</time>
      </trkpt>
      <trkpt lat="43.08021" lon="5.92411">
        <ele>2.06</ele>
        <time>2019-05-25T17:06:39Z</time>
      </trkpt>
      <trkpt lat="43.0802" lon="5.92414">
        <ele>2.06</ele>
        <time>2019-05-25T17:07:08Z</time>
      </trkpt>
      <trkpt lat="43.08015" lon="5.9243">
        <ele>2.54</ele>
        <time>2019-05-25T17:07:37Z</time>
      </trkpt>
      <trkpt lat="43.08017" lon="5.92428">
        <ele>3.02</ele>
        <time>2019-05-25T17:08:03Z</time>
      </trkpt>
      <trkpt lat="43.08013" lon="5.92431">
        <ele>3.02</ele>
        <time>2019-05-25T17:08:33Z</time>
      </trkpt>
      <trkpt lat="43.08006" lon="5.92436">
        <ele>4.46</ele>
        <time>2019-05-25T17:09:08Z</time>
      </trkpt>
      <trkpt lat="43.08006" lon="5.92436">
        <ele>3.98</ele>
        <time>2019-05-25T17:09:43Z</time>
      </trkpt>
      <trkpt lat="43.08005" lon="5.92436">
        <ele>3.02</ele>
        <time>2019-05-25T17:10:25Z</time>
      </trkpt>
      <trkpt lat="43.08005" lon="5.92436">
        <ele>2.54</ele>
        <time>2019-05-25T17:10:57Z</time>
      </trkpt>
      <trkpt lat="43.08005" lon="5.92437">
        <ele>2.54</ele>
        <time>2019-05-25T17:11:36Z</time>
      </trkpt>
      <trkpt lat="43.08005" lon="5.92437">
        <ele>2.54</ele>
        <time>2019-05-25T17:12:09Z</time>
      </trkpt>
      <trkpt lat="43.08005" lon="5.92438">
        <ele>2.54</ele>
        <time>2019-05-25T17:12:42Z</time>
      </trkpt>
      <trkpt lat="43.08005" lon="5.92437">
        <ele>2.54</ele>
        <time>2019-05-25T17:13:16Z</time>
      </trkpt>
      <trkpt lat="43.08006" lon="5.92437">
        <ele>3.02</ele>
        <time>2019-05-25T17:13:48Z</time>
      </trkpt>
      <trkpt lat="43.08006" lon="5.92437">
        <ele>3.02</ele>
        <time>2019-05-25T17:14:19Z</time>
      </trkpt>
      <trkpt lat="43.08004" lon="5.92437">
        <ele>3.5</ele>
        <time>2019-05-25T17:14:52Z</time>
      </trkpt>
      <trkpt lat="43.08005" lon="5.92437">
        <ele>3.5</ele>
        <time>2019-05-25T17:15:18Z</time>
      </trkpt>
      <trkpt lat="43.08005" lon="5.92437">
        <ele>3.5</ele>
        <time>2019-05-25T17:15:48Z</time>
      </trkpt>
      <trkpt lat="43.08005" lon="5.92436">
        <ele>3.5</ele>
        <time>2019-05-25T17:16:14Z</time>
      </trkpt>
      <trkpt lat="43.08005" lon="5.92436">
        <ele>2.54</ele>
        <time>2019-05-25T17:16:39Z</time>
      </trkpt>
      <trkpt lat="43.08005" lon="5.92438">
        <ele>2.06</ele>
        <time>2019-05-25T17:17:10Z</time>
      </trkpt>
      <trkpt lat="43.08005" lon="5.92436">
        <ele>2.54</ele>
        <time>2019-05-25T17:17:41Z</time>
      </trkpt>
      <trkpt lat="43.08005" lon="5.92436">
        <ele>3.98</ele>
        <time>2019-05-25T17:18:10Z</time>
      </trkpt>
      <trkpt lat="43.08005" lon="5.92436">
        <ele>5.42</ele>
        <time>2019-05-25T17:18:40Z</time>
      </trkpt>
      <trkpt lat="43.08005" lon="5.92437">
        <ele>5.42</ele>
        <time>2019-05-25T17:19:12Z</time>
      </trkpt>
      <trkpt lat="43.08004" lon="5.92437">
        <ele>4.94</ele>
        <time>2019-05-25T17:19:44Z</time>
      </trkpt>
      <trkpt lat="43.08005" lon="5.92437">
        <ele>4.94</ele>
        <time>2019-05-25T17:20:14Z</time>
      </trkpt>
      <trkpt lat="43.08005" lon="5.92437">
        <ele>3.98</ele>
        <time>2019-05-25T17:20:49Z</time>
      </trkpt>
      <trkpt lat="43.08004" lon="5.92437">
        <ele>3.98</ele>
        <time>2019-05-25T17:21:20Z</time>
      </trkpt>
      <trkpt lat="43.08005" lon="5.92438">
        <ele>3.5</ele>
        <time>2019-05-25T17:21:54Z</time>
      </trkpt>
      <trkpt lat="43.08005" lon="5.92437">
        <ele>3.98</ele>
        <time>2019-05-25T17:22:31Z</time>
      </trkpt>
      <trkpt lat="43.08005" lon="5.92436">
        <ele>3.98</ele>
        <time>2019-05-25T17:23:07Z</time>
      </trkpt>
      <trkpt lat="43.08005" lon="5.92436">
        <ele>4.46</ele>
        <time>2019-05-25T17:23:33Z</time>
      </trkpt>
      <trkpt lat="43.08005" lon="5.92437">
        <ele>4.46</ele>
        <time>2019-05-25T17:24:02Z</time>
      </trkpt>
      <trkpt lat="43.08005" lon="5.92437">
        <ele>4.94</ele>
        <time>2019-05-25T17:24:29Z</time>
      </trkpt>
      <trkpt lat="43.08004" lon="5.92438">
        <ele>5.42</ele>
        <time>2019-05-25T17:25:00Z</time>
      </trkpt>
      <trkpt lat="43.08006" lon="5.92437">
        <ele>3.98</ele>
        <time>2019-05-25T17:25:31Z</time>
      </trkpt>
      <trkpt lat="43.08006" lon="5.92437">
        <ele>3.98</ele>
        <time>2019-05-25T17:26:14Z</time>
      </trkpt>
      <trkpt lat="43.08005" lon="5.92438">
        <ele>4.46</ele>
        <time>2019-05-25T17:26:43Z</time>
      </trkpt>
      <trkpt lat="43.08005" lon="5.92438">
        <ele>4.46</ele>
        <time>2019-05-25T17:27:12Z</time>
      </trkpt>
      <trkpt lat="43.08005" lon="5.92438">
        <ele>4.46</ele>
        <time>2019-05-25T17:27:46Z</time>
      </trkpt>
      <trkpt lat="43.08005" lon="5.92438">
        <ele>3.98</ele>
        <time>2019-05-25T17:28:15Z</time>
      </trkpt>
      <trkpt lat="43.08005" lon="5.92437">
        <ele>2.54</ele>
        <time>2019-05-25T17:28:49Z</time>
      </trkpt>
      <trkpt lat="43.08006" lon="5.92437">
        <ele>3.02</ele>
        <time>2019-05-25T17:29:24Z</time>
      </trkpt>
      <trkpt lat="43.08006" lon="5.92438">
        <ele>3.5</ele>
        <time>2019-05-25T17:29:54Z</time>
      </trkpt>
      <trkpt lat="43.08006" lon="5.92438">
        <ele>3.98</ele>
        <time>2019-05-25T17:30:24Z</time>
      </trkpt>
      <trkpt lat="43.08006" lon="5.92437">
        <ele>3.98</ele>
        <time>2019-05-25T17:30:56Z</time>
      </trkpt>
      <trkpt lat="43.08007" lon="5.92437">
        <ele>3.02</ele>
        <time>2019-05-25T17:31:25Z</time>
      </trkpt>
      <trkpt lat="43.08006" lon="5.92438">
        <ele>2.06</ele>
        <time>2019-05-25T17:31:50Z</time>
      </trkpt>
      <trkpt lat="43.08006" lon="5.92437">
        <ele>1.58</ele>
        <time>2019-05-25T17:32:22Z</time>
      </trkpt>
      <trkpt lat="43.08007" lon="5.92438">
        <ele>1.1</ele>
        <time>2019-05-25T17:32:52Z</time>
      </trkpt>
      <trkpt lat="43.08006" lon="5.92438">
        <ele>2.06</ele>
        <time>2019-05-25T17:33:18Z</time>
      </trkpt>
      <trkpt lat="43.08006" lon="5.92438">
        <ele>3.5</ele>
        <time>2019-05-25T17:33:53Z</time>
      </trkpt>
      <trkpt lat="43.08006" lon="5.92438">
        <ele>3.02</ele>
        <time>2019-05-25T17:34:27Z</time>
      </trkpt>
      <trkpt lat="43.08006" lon="5.92437">
        <ele>3.5</ele>
        <time>2019-05-25T17:35:11Z</time>
      </trkpt>
      <trkpt lat="43.08007" lon="5.92437">
        <ele>4.46</ele>
        <time>2019-05-25T17:35:46Z</time>
      </trkpt>
      <trkpt lat="43.08007" lon="5.92437">
        <ele>3.5</ele>
        <time>2019-05-25T17:36:29Z</time>
      </trkpt>
      <trkpt lat="43.08007" lon="5.92437">
        <ele>3.5</ele>
        <time>2019-05-25T17:37:03Z</time>
      </trkpt>
      <trkpt lat="43.08007" lon="5.92437">
        <ele>3.02</ele>
        <time>2019-05-25T17:37:37Z</time>
      </trkpt>
      <trkpt lat="43.08006" lon="5.92438">
        <ele>3.02</ele>
        <time>2019-05-25T17:38:11Z</time>
      </trkpt>
      <trkpt lat="43.08005" lon="5.92437">
        <ele>3.98</ele>
        <time>2019-05-25T17:38:44Z</time>
      </trkpt>
      <trkpt lat="43.08005" lon="5.92438">
        <ele>4.46</ele>
        <time>2019-05-25T17:39:16Z</time>
      </trkpt>
      <trkpt lat="43.08006" lon="5.92438">
        <ele>4.46</ele>
        <time>2019-05-25T17:39:46Z</time>
      </trkpt>
      <trkpt lat="43.08005" lon="5.92438">
        <ele>4.94</ele>
        <time>2019-05-25T17:40:16Z</time>
      </trkpt>
      <trkpt lat="43.08005" lon="5.92438">
        <ele>4.46</ele>
        <time>2019-05-25T17:40:39Z</time>
      </trkpt>
    </trkseg>
  </trk>
</gpx>